Time;durP1;ratioP1;P1;durP2;ratioP2;P2;SDS_P1;SDS_P2;PMS_P1;PMS_P2;Temp;Humidity;BMP_temperature;BMP_pressure;BME280_temperature;BME280_humidity;BME280_pressure;Samples;Min_cycle;Max_cycle;Signal;HPM_P1;HPM_P2
2023/05/19 00:01:47;;;;;;;30.83;19.13;;;9.80;84.40;;;;;;4872481;29;20105;-86
2023/05/19 00:04:14;;;;;;;27.10;18.23;;;9.80;84.50;;;;;;4875432;29;20484;-86
2023/05/19 00:06:40;;;;;;;24.15;18.20;;;9.80;84.30;;;;;;4888172;29;20053;-85
2023/05/19 00:09:11;;;;;;;29.45;18.23;;;9.80;84.30;;;;;;4888082;29;20040;-85
2023/05/19 00:11:38;;;;;;;26.98;18.60;;;9.70;84.40;;;;;;4853586;29;20378;-86
2023/05/19 00:14:06;;;;;;;26.95;19.08;;;9.70;84.60;;;;;;4859398;29;20556;-85
2023/05/19 00:16:34;;;;;;;28.50;19.75;;;9.70;84.60;;;;;;4864334;29;20045;-86
2023/05/19 00:19:02;;;;;;;24.48;18.70;;;9.60;84.60;;;;;;4873073;29;20126;-85
2023/05/19 00:21:29;;;;;;;30.20;19.20;;;9.60;85.00;;;;;;4862907;29;20568;-85
2023/05/19 00:23:55;;;;;;;26.92;19.10;;;9.60;85.00;;;;;;4878886;29;20108;-85
2023/05/19 00:26:21;;;;;;;27.60;19.48;;;9.60;85.10;;;;;;4865318;29;20099;-85
2023/05/19 00:28:48;;;;;;;32.30;19.40;;;9.60;85.20;;;;;;4887929;29;20223;-85
2023/05/19 00:31:14;;;;;;;31.85;19.17;;;9.60;85.20;;;;;;4863360;29;20049;-85
2023/05/19 00:33:40;;;;;;;29.35;19.60;;;9.50;85.30;;;;;;4860474;29;20047;-85
2023/05/19 00:36:06;;;;;;;31.70;19.67;;;9.50;85.40;;;;;;4862285;29;20040;-86
2023/05/19 00:38:32;;;;;;;28.45;19.17;;;9.50;85.40;;;;;;4862842;29;20033;-86
2023/05/19 00:40:59;;;;;;;29.25;20.13;;;9.50;85.60;;;;;;4876340;29;20029;-85
2023/05/19 00:43:25;;;;;;;27.73;20.20;;;9.50;85.70;;;;;;4860428;29;20060;-85
2023/05/19 00:45:51;;;;;;;29.75;19.55;;;9.50;86.00;;;;;;4858720;29;20057;-85
2023/05/19 00:48:17;;;;;;;27.13;18.90;;;9.50;85.90;;;;;;4878118;29;20148;-83
2023/05/19 00:50:44;;;;;;;28.88;20.38;;;9.40;85.90;;;;;;4876501;29;20124;-85
2023/05/19 00:53:11;;;;;;;28.88;19.50;;;9.50;86.10;;;;;;4857142;29;20178;-84
2023/05/19 00:55:39;;;;;;;28.48;20.25;;;9.50;86.00;;;;;;4870762;29;20032;-85
2023/05/19 00:58:07;;;;;;;30.27;18.90;;;9.40;86.10;;;;;;4854729;29;20068;-84
2023/05/19 01:00:35;;;;;;;34.25;20.95;;;9.40;86.10;;;;;;4873307;29;20260;-85
2023/05/19 01:03:01;;;;;;;29.40;20.50;;;9.40;86.20;;;;;;4858873;29;20458;-85
2023/05/19 01:05:27;;;;;;;32.53;21.83;;;9.40;86.30;;;;;;4857452;29;20041;-84
2023/05/19 01:07:55;;;;;;;31.10;22.42;;;9.40;86.40;;;;;;4853542;29;20039;-85
2023/05/19 01:10:21;;;;;;;35.00;22.23;;;9.40;86.30;;;;;;4877103;29;20044;-85
2023/05/19 01:12:47;;;;;;;34.45;21.67;;;9.30;86.30;;;;;;4873751;29;20044;-85
2023/05/19 01:15:14;;;;;;;32.42;20.80;;;9.30;86.40;;;;;;4890195;29;20043;-85
2023/05/19 01:18:00;;;;;;;27.92;19.58;;;9.30;86.20;;;;;;4886610;29;20039;-85
2023/05/19 01:20:31;;;;;;;27.35;20.60;;;9.30;86.10;;;;;;4872333;29;20029;-85
2023/05/19 01:23:16;;;;;;;32.63;19.77;;;9.20;86.00;;;;;;4873122;29;20071;-85
2023/05/19 01:25:57;;;;;;;30.02;20.17;;;9.20;86.10;;;;;;4899005;29;20393;-87
2023/05/19 01:28:53;;;;;;;27.90;18.67;;;9.20;86.10;;;;;;4897684;29;20458;-85
2023/05/19 01:31:22;;;;;;;28.30;20.23;;;9.10;86.00;;;;;;4886939;29;20044;-87
2023/05/19 01:33:50;;;;;;;29.10;20.17;;;9.10;85.80;;;;;;4872681;29;20473;-87
2023/05/19 01:36:18;;;;;;;30.23;19.65;;;9.10;85.70;;;;;;4873605;29;20171;-86
2023/05/19 01:38:45;;;;;;;30.20;21.70;;;9.10;85.90;;;;;;4873146;29;20080;-85
2023/05/19 01:41:11;;;;;;;31.88;20.63;;;9.10;86.40;;;;;;4875174;29;20132;-86
2023/05/19 01:43:37;;;;;;;33.10;22.00;;;9.10;86.40;;;;;;4872129;29;20056;-86
2023/05/19 01:46:05;;;;;;;28.40;20.00;;;9.10;86.60;;;;;;4886302;29;20037;-86
2023/05/19 01:48:32;;;;;;;29.95;21.70;;;9.10;86.60;;;;;;4869221;29;20031;-86
2023/05/19 01:50:58;;;;;;;35.90;22.05;;;9.10;86.70;;;;;;4880285;29;20536;-86
2023/05/19 01:53:24;;;;;;;35.88;23.15;;;9.10;86.70;;;;;;4876614;29;20061;-85
2023/05/19 01:55:52;;;;;;;31.23;20.65;;;9.10;86.80;;;;;;4872736;29;20308;-86
2023/05/19 01:58:33;;;;;;;33.17;22.95;;;9.10;86.80;;;;;;4871692;29;20036;-86
2023/05/19 02:01:23;;;;;;;30.27;20.48;;;9.10;86.90;;;;;;4892133;29;20203;-86
2023/05/19 02:04:07;;;;;;;29.88;21.38;;;9.00;87.10;;;;;;4888548;29;20033;-86
2023/05/19 02:06:41;;;;;;;31.60;20.90;;;9.00;86.90;;;;;;4890476;29;20060;-86
2023/05/19 02:09:34;;;;;;;28.30;20.70;;;8.90;86.90;;;;;;4874438;29;20021;-86
2023/05/19 02:12:27;;;;;;;29.67;20.98;;;8.80;86.90;;;;;;4892886;29;20044;-86
2023/05/19 02:15:14;;;;;;;31.73;21.00;;;8.80;87.00;;;;;;4871102;29;20032;-85
2023/05/19 02:17:47;;;;;;;29.45;20.65;;;8.70;86.90;;;;;;4868341;29;20262;-85
2023/05/19 02:20:14;;;;;;;28.63;21.45;;;8.70;86.90;;;;;;4887264;29;20429;-86
2023/05/19 02:22:40;;;;;;;26.77;21.02;;;8.70;87.20;;;;;;4885136;29;20048;-85
2023/05/19 02:25:07;;;;;;;31.77;21.95;;;8.60;87.20;;;;;;4871284;29;20029;-85
2023/05/19 02:27:37;;;;;;;34.05;21.90;;;8.60;87.40;;;;;;4872361;29;20517;-85
2023/05/19 02:30:04;;;;;;;30.23;21.88;;;8.60;87.40;;;;;;4874029;29;20084;-85
2023/05/19 02:32:31;;;;;;;28.70;20.65;;;8.60;87.60;;;;;;4872404;29;20029;-86
2023/05/19 02:34:56;;;;;;;35.85;23.02;;;8.60;87.80;;;;;;4889688;29;20055;-86
2023/05/19 02:37:24;;;;;;;29.73;21.58;;;8.60;88.00;;;;;;4879782;29;20430;-86
2023/05/19 02:39:50;;;;;;;32.08;22.08;;;8.60;88.10;;;;;;4877692;29;20653;-86
2023/05/19 02:42:17;;;;;;;37.90;22.35;;;8.60;88.30;;;;;;4882793;29;20040;-86
2023/05/19 02:44:43;;;;;;;35.05;22.52;;;8.60;88.40;;;;;;4881545;29;20640;-87
2023/05/19 02:47:09;;;;;;;36.83;22.30;;;8.60;88.40;;;;;;4881005;29;20478;-86
2023/05/19 02:49:35;;;;;;;32.70;20.15;;;8.60;88.50;;;;;;4885640;29;20112;-86
2023/05/19 02:52:04;;;;;;;33.17;21.42;;;8.60;88.40;;;;;;4878541;29;20448;-87
2023/05/19 02:54:31;;;;;;;34.05;21.55;;;8.60;88.60;;;;;;4885959;29;20477;-87
2023/05/19 02:56:57;;;;;;;34.03;22.15;;;8.60;88.70;;;;;;4887382;29;20061;-87
2023/05/19 02:59:23;;;;;;;30.30;22.25;;;8.60;88.60;;;;;;4878685;29;20042;-86
2023/05/19 03:01:50;;;;;;;34.35;21.65;;;8.60;88.50;;;;;;4877278;29;20123;-84
2023/05/19 03:04:18;;;;;;;32.75;21.00;;;8.60;88.40;;;;;;4893652;29;20115;-85
2023/05/19 03:06:45;;;;;;;28.48;21.92;;;8.60;88.40;;;;;;4871168;29;20045;-85
2023/05/19 03:09:15;;;;;;;31.10;21.50;;;8.60;88.40;;;;;;4873434;29;20024;-86
2023/05/19 03:11:40;;;;;;;29.98;21.13;;;8.70;88.30;;;;;;4856932;29;20447;-85
2023/05/19 03:14:08;;;;;;;33.75;21.20;;;8.60;88.40;;;;;;4849086;29;20032;-85
2023/05/19 03:16:34;;;;;;;31.60;20.95;;;8.70;88.30;;;;;;4873268;29;20048;-86
2023/05/19 03:19:00;;;;;;;34.22;21.58;;;8.60;88.30;;;;;;4859056;29;20017;-86
2023/05/19 03:21:26;;;;;;;34.53;22.45;;;8.60;88.30;;;;;;4872685;29;20359;-86
2023/05/19 03:23:53;;;;;;;27.83;20.85;;;8.60;88.40;;;;;;4865900;29;20048;-85
2023/05/19 03:26:19;;;;;;;30.20;19.65;;;8.60;88.50;;;;;;4861321;29;20089;-86
2023/05/19 03:28:44;;;;;;;27.58;20.40;;;8.60;88.40;;;;;;4856917;29;20277;-86
2023/05/19 03:31:10;;;;;;;27.05;20.38;;;8.60;88.50;;;;;;4852189;29;20037;-86
2023/05/19 03:33:36;;;;;;;28.73;21.05;;;8.60;88.60;;;;;;4855530;29;20025;-85
2023/05/19 03:36:02;;;;;;;31.02;21.38;;;8.50;88.60;;;;;;4858012;29;20610;-86
2023/05/19 03:38:28;;;;;;;26.52;20.02;;;8.50;88.60;;;;;;4857485;29;20033;-86
2023/05/19 03:40:54;;;;;;;29.08;20.35;;;8.50;88.50;;;;;;4870802;29;20180;-86
2023/05/19 03:43:20;;;;;;;28.08;20.90;;;8.40;88.40;;;;;;4857147;29;20171;-86
2023/05/19 03:45:45;;;;;;;29.73;20.63;;;8.40;88.30;;;;;;4853484;29;20053;-85
2023/05/19 03:48:11;;;;;;;28.45;20.30;;;8.40;88.30;;;;;;4868832;29;20043;-85
2023/05/19 03:50:37;;;;;;;31.23;19.98;;;8.40;88.20;;;;;;4865913;29;20184;-87
2023/05/19 03:53:03;;;;;;;27.60;20.38;;;8.40;88.30;;;;;;4857988;29;20131;-86
2023/05/19 03:55:29;;;;;;;33.83;20.85;;;8.50;88.30;;;;;;4861887;29;20032;-86
2023/05/19 03:57:55;;;;;;;34.53;21.38;;;8.50;88.20;;;;;;4850564;29;20093;-86
2023/05/19 04:00:21;;;;;;;30.77;21.85;;;8.60;88.20;;;;;;4859884;29;20040;-86
2023/05/19 04:02:47;;;;;;;37.17;21.65;;;8.60;88.10;;;;;;4872665;29;20036;-86
2023/05/19 04:05:13;;;;;;;28.33;21.65;;;8.80;88.10;;;;;;4858482;29;20369;-85
2023/05/19 04:07:40;;;;;;;30.75;20.55;;;8.60;88.10;;;;;;4858548;29;20374;-86
2023/05/19 04:10:06;;;;;;;32.60;20.67;;;8.60;88.10;;;;;;4860182;29;20426;-86
2023/05/19 04:12:32;;;;;;;31.23;21.33;;;8.60;88.00;;;;;;4867064;29;20037;-86
2023/05/19 04:14:58;;;;;;;35.30;22.17;;;8.60;88.00;;;;;;4866500;29;20073;-86
2023/05/19 04:17:25;;;;;;;31.20;21.45;;;8.60;88.00;;;;;;4863670;29;20048;-87
2023/05/19 04:19:52;;;;;;;34.90;21.33;;;8.60;88.00;;;;;;4876081;29;20521;-85
2023/05/19 04:22:17;;;;;;;29.52;20.02;;;8.60;88.00;;;;;;4851577;29;20077;-86
2023/05/19 04:24:44;;;;;;;28.73;19.55;;;8.60;88.00;;;;;;4852443;29;20012;-86
2023/05/19 04:27:11;;;;;;;28.50;21.55;;;8.60;88.00;;;;;;4853546;29;20069;-85
2023/05/19 04:29:37;;;;;;;28.88;20.45;;;8.60;88.00;;;;;;4856256;29;20029;-86
2023/05/19 04:32:06;;;;;;;36.17;21.85;;;8.70;88.10;;;;;;4866830;29;20040;-86
2023/05/19 04:34:39;;;;;;;34.75;23.13;;;8.70;88.00;;;;;;4865347;29;20033;-86
2023/05/19 04:37:06;;;;;;;28.98;20.77;;;8.80;88.10;;;;;;4861664;29;20036;-86
2023/05/19 04:39:32;;;;;;;29.67;21.10;;;8.90;88.20;;;;;;4876043;29;20025;-87
2023/05/19 04:41:58;;;;;;;30.40;22.13;;;9.00;88.00;;;;;;4857590;29;20035;-86
2023/05/19 04:44:25;;;;;;;28.25;20.67;;;9.10;87.80;;;;;;4863120;29;20025;-86
2023/05/19 04:46:53;;;;;;;30.33;21.67;;;9.10;87.70;;;;;;4860308;29;20048;-86
2023/05/19 04:49:19;;;;;;;28.50;21.23;;;9.10;87.50;;;;;;4859104;29;20033;-87
2023/05/19 04:51:45;;;;;;;38.55;22.73;;;9.20;87.60;;;;;;4854891;29;20045;-86
2023/05/19 04:54:10;;;;;;;28.42;22.67;;;9.30;87.30;;;;;;4860559;29;20029;-86
2023/05/19 04:56:36;;;;;;;30.35;20.70;;;9.40;87.20;;;;;;4855945;29;20046;-85
2023/05/19 04:59:02;;;;;;;31.13;21.88;;;9.50;87.20;;;;;;4860198;29;20049;-85
2023/05/19 05:01:29;;;;;;;32.50;22.02;;;9.50;87.00;;;;;;4868439;29;20025;-86
2023/05/19 05:03:57;;;;;;;26.45;21.08;;;9.50;87.00;;;;;;4858092;29;20183;-86
2023/05/19 05:06:23;;;;;;;31.27;20.85;;;9.60;87.20;;;;;;4870037;29;20034;-85
2023/05/19 05:08:49;;;;;;;27.92;20.13;;;9.60;87.00;;;;;;4858529;29;20024;-86
2023/05/19 05:11:16;;;;;;;32.40;20.83;;;9.70;87.00;;;;;;4875309;29;20045;-85
2023/05/19 05:13:45;;;;;;;37.17;21.35;;;9.80;86.70;;;;;;4857345;29;20760;-87
2023/05/19 05:16:16;;;;;;;31.38;21.20;;;9.80;86.40;;;;;;4872559;29;20539;-86
2023/05/19 05:18:57;;;;;;;31.52;20.85;;;10.20;87.20;;;;;;4865134;29;20467;-87
2023/05/19 05:21:30;;;;;;;23.25;16.45;;;11.50;84.10;;;;;;4858503;29;20032;-86
2023/05/19 05:24:05;;;;;;;22.45;16.00;;;12.20;79.30;;;;;;4855257;29;20033;-86
2023/05/19 05:26:52;;;;;;;20.27;14.93;;;13.00;76.60;;;;;;4859269;29;20044;-86
2023/05/19 05:29:19;;;;;;;19.65;15.23;;;13.60;74.00;;;;;;4856645;29;20028;-86
2023/05/19 05:31:45;;;;;;;20.38;14.23;;;14.10;72.50;;;;;;4851477;29;20059;-86
2023/05/19 05:34:11;;;;;;;19.40;14.57;;;14.10;70.80;;;;;;4856909;29;20449;-86
2023/05/19 05:36:36;;;;;;;18.85;13.75;;;14.50;70.40;;;;;;4857153;29;20052;-87
2023/05/19 05:39:03;;;;;;;22.60;15.13;;;15.20;68.70;;;;;;4856688;29;20017;-87
2023/05/19 05:41:33;;;;;;;17.50;13.52;;;14.70;66.90;;;;;;4860549;29;20140;-86
2023/05/19 05:44:00;;;;;;;21.02;14.10;;;14.60;68.70;;;;;;4866027;29;20039;-87
2023/05/19 05:46:26;;;;;;;19.80;13.63;;;15.10;67.80;;;;;;4876359;29;20051;-86
2023/05/19 05:48:52;;;;;;;20.73;12.93;;;15.30;66.40;;;;;;4858852;29;20029;-86
2023/05/19 05:51:21;;;;;;;21.65;14.15;;;15.10;66.60;;;;;;4858988;29;20453;-86
2023/05/19 05:53:52;;;;;;;20.17;13.35;;;14.60;67.80;;;;;;4859512;29;20036;-87
2023/05/19 05:56:18;;;;;;;23.17;14.82;;;14.10;69.40;;;;;;4857809;29;20138;-86
2023/05/19 05:58:43;;;;;;;21.67;14.90;;;13.30;72.00;;;;;;4869388;29;20507;-88
2023/05/19 06:01:09;;;;;;;22.17;14.70;;;12.90;74.00;;;;;;4865039;29;20049;-86
2023/05/19 06:03:40;;;;;;;23.50;14.98;;;12.60;75.40;;;;;;4874163;29;20028;-88
2023/05/19 06:06:06;;;;;;;22.25;15.48;;;12.30;77.30;;;;;;4867512;29;20040;-87
2023/05/19 06:08:32;;;;;;;26.52;16.27;;;12.10;77.90;;;;;;4863725;29;20096;-86
2023/05/19 06:10:58;;;;;;;23.58;15.95;;;12.10;78.70;;;;;;4859465;29;20386;-86
2023/05/19 06:13:24;;;;;;;22.65;16.25;;;12.10;78.00;;;;;;4879749;29;20040;-87
2023/05/19 06:15:51;;;;;;;20.65;14.95;;;12.00;78.70;;;;;;4855027;29;20033;-87
2023/05/19 06:18:17;;;;;;;27.02;16.73;;;12.10;78.50;;;;;;4853525;29;20035;-85
2023/05/19 06:20:43;;;;;;;23.13;16.25;;;12.20;77.80;;;;;;4865817;29;20474;-86
2023/05/19 06:23:09;;;;;;;21.60;15.98;;;12.40;77.60;;;;;;4853911;29;20021;-87
2023/05/19 06:25:35;;;;;;;21.02;16.45;;;12.40;76.30;;;;;;4859205;29;20033;-86
2023/05/19 06:28:02;;;;;;;23.08;15.23;;;12.20;76.80;;;;;;4876622;29;20401;-87
2023/05/19 06:30:28;;;;;;;25.65;16.48;;;12.40;77.60;;;;;;4877730;29;20027;-86
2023/05/19 06:32:54;;;;;;;20.25;14.93;;;12.60;76.20;;;;;;4895554;29;20041;-87
2023/05/19 06:35:20;;;;;;;20.85;15.02;;;12.80;75.30;;;;;;4883185;29;20055;-86
2023/05/19 06:37:45;;;;;;;21.67;14.20;;;12.80;75.30;;;;;;4876636;29;20033;-87
2023/05/19 06:40:12;;;;;;;20.75;14.07;;;12.90;71.60;;;;;;4883411;29;20021;-86
2023/05/19 06:42:37;;;;;;;25.15;14.30;;;12.70;71.20;;;;;;4875383;29;20068;-86
2023/05/19 06:45:04;;;;;;;21.48;13.90;;;12.80;71.90;;;;;;4884662;29;20021;-87
2023/05/19 06:47:32;;;;;;;21.45;14.20;;;12.90;71.90;;;;;;4879345;29;20168;-86
2023/05/19 06:49:58;;;;;;;20.95;13.40;;;12.80;72.50;;;;;;4885168;29;20056;-86
2023/05/19 06:52:27;;;;;;;19.42;13.90;;;12.90;71.80;;;;;;4888086;29;20017;-86
2023/05/19 06:54:53;;;;;;;20.55;14.82;;;12.80;71.30;;;;;;4877316;29;20037;-87
2023/05/19 06:57:19;;;;;;;23.55;14.43;;;13.00;71.80;;;;;;4875885;29;20048;-87
2023/05/19 06:59:45;;;;;;;21.65;13.52;;;13.10;70.80;;;;;;4876466;29;20021;-87
2023/05/19 07:02:13;;;;;;;23.38;13.95;;;13.30;71.30;;;;;;4875117;29;20052;-87
2023/05/19 07:04:53;;;;;;;19.98;13.10;;;13.30;69.80;;;;;;4877507;29;20013;-86
2023/05/19 07:07:21;;;;;;;18.98;13.32;;;13.40;70.40;;;;;;4867377;29;20025;-88
2023/05/19 07:09:47;;;;;;;18.55;13.00;;;13.30;70.70;;;;;;4880398;29;20051;-87
2023/05/19 07:12:13;;;;;;;18.27;13.75;;;13.60;70.20;;;;;;4892715;29;20546;-86
2023/05/19 07:14:39;;;;;;;22.95;13.00;;;14.00;69.40;;;;;;4880627;29;20039;-87
2023/05/19 07:17:04;;;;;;;20.02;13.05;;;14.10;67.30;;;;;;4878469;29;20048;-86
2023/05/19 07:19:30;;;;;;;19.33;13.35;;;14.10;68.00;;;;;;4895825;29;20515;-87
2023/05/19 07:21:58;;;;;;;21.58;14.07;;;14.20;68.30;;;;;;4878210;29;20040;-86
2023/05/19 07:24:23;;;;;;;16.92;13.32;;;14.10;68.10;;;;;;4881041;29;20678;-88
2023/05/19 07:26:49;;;;;;;18.98;12.68;;;14.20;68.50;;;;;;4880799;29;20159;-88
2023/05/19 07:29:15;;;;;;;21.23;12.90;;;14.40;69.10;;;;;;4881702;29;20064;-88
2023/05/19 07:31:41;;;;;;;19.30;13.30;;;14.50;67.30;;;;;;4883011;29;20084;-88
2023/05/19 07:34:07;;;;;;;20.23;13.75;;;14.40;67.40;;;;;;4884222;29;20095;-87
2023/05/19 07:36:33;;;;;;;19.75;12.82;;;14.60;67.90;;;;;;4883941;29;20052;-88
2023/05/19 07:38:59;;;;;;;16.50;12.23;;;14.60;67.80;;;;;;4879356;29;20486;-88
2023/05/19 07:41:25;;;;;;;20.15;13.38;;;14.50;66.90;;;;;;4890639;29;20036;-87
2023/05/19 07:43:51;;;;;;;21.08;14.05;;;14.30;67.40;;;;;;4896373;29;20024;-88
2023/05/19 07:46:16;;;;;;;22.92;15.02;;;14.60;68.10;;;;;;4896697;29;20044;-90
2023/05/19 07:48:45;;;;;;;19.60;13.50;;;14.60;66.50;;;;;;4916926;29;20025;-86
2023/05/19 07:51:12;;;;;;;21.88;14.25;;;14.90;66.00;;;;;;4903527;29;20040;-87
2023/05/19 07:53:37;;;;;;;21.95;14.13;;;14.80;67.10;;;;;;4889382;29;20035;-87
2023/05/19 07:56:04;;;;;;;24.55;15.38;;;14.90;66.00;;;;;;4882705;29;20127;-87
2023/05/19 07:58:29;;;;;;;24.42;15.15;;;14.90;65.60;;;;;;4877696;29;20040;-88
2023/05/19 08:00:58;;;;;;;23.08;14.77;;;15.00;65.30;;;;;;4880361;29;20025;-88
2023/05/19 08:03:25;;;;;;;23.90;15.43;;;15.10;65.90;;;;;;4885545;29;20118;-89
2023/05/19 08:05:51;;;;;;;124.68;24.75;;;15.20;64.50;;;;;;4887135;29;20036;-89
2023/05/19 08:08:18;;;;;;;30.80;18.73;;;15.20;66.40;;;;;;4881937;29;20116;-87
2023/05/19 08:10:45;;;;;;;28.48;19.00;;;15.40;65.20;;;;;;4911598;29;20048;-88
2023/05/19 08:13:11;;;;;;;30.17;19.52;;;15.60;64.20;;;;;;4892174;29;20027;-88
2023/05/19 08:15:37;;;;;;;33.25;20.38;;;15.60;64.90;;;;;;4895737;29;20037;-87
2023/05/19 08:18:03;;;;;;;29.98;21.08;;;15.70;63.00;;;;;;4886325;29;20044;-88
2023/05/19 08:20:30;;;;;;;31.80;21.83;;;16.00;63.40;;;;;;4882862;29;20028;-88
2023/05/19 08:22:55;;;;;;;26.88;20.10;;;16.00;61.70;;;;;;4877905;29;20032;-88
2023/05/19 08:25:21;;;;;;;29.90;22.77;;;16.00;61.30;;;;;;4879839;29;20031;-88
2023/05/19 08:27:47;;;;;;;35.03;25.10;;;16.10;62.70;;;;;;4875421;29;20037;-89
2023/05/19 08:30:13;;;;;;;32.97;24.75;;;15.90;62.10;;;;;;4880137;29;20032;-90
2023/05/19 08:32:39;;;;;;;33.85;25.83;;;15.80;62.00;;;;;;4879869;29;20029;-88
2023/05/19 08:35:06;;;;;;;37.78;28.60;;;16.10;62.60;;;;;;4886459;29;20024;-87
2023/05/19 08:37:32;;;;;;;40.58;29.70;;;16.10;61.60;;;;;;4895744;29;20083;-87
2023/05/19 08:39:58;;;;;;;42.15;28.90;;;16.30;62.30;;;;;;4883818;29;20024;-88
2023/05/19 08:42:24;;;;;;;36.33;27.58;;;16.20;60.90;;;;;;4895606;29;21159;-89
2023/05/19 08:44:50;;;;;;;33.70;24.95;;;16.30;61.50;;;;;;4882666;29;20020;-89
2023/05/19 08:47:17;;;;;;;34.38;23.02;;;16.40;60.70;;;;;;4880614;29;20055;-90
2023/05/19 08:49:45;;;;;;;31.30;22.10;;;16.60;60.30;;;;;;4879520;29;20545;-88
2023/05/19 08:52:29;;;;;;;30.30;20.90;;;16.70;60.10;;;;;;4882321;29;20040;-87
2023/05/19 08:55:03;;;;;;;29.95;19.60;;;16.60;59.50;;;;;;4901378;29;20076;-88
2023/05/19 08:57:29;;;;;;;24.80;17.90;;;16.60;61.00;;;;;;4882192;29;20052;-88
2023/05/19 08:59:56;;;;;;;26.30;16.50;;;17.00;59.50;;;;;;4877872;29;20033;-89
2023/05/19 09:02:22;;;;;;;17.10;11.65;;;17.10;59.90;;;;;;4880019;29;20037;-86
2023/05/19 09:04:48;;;;;;;25.05;13.10;;;17.50;59.00;;;;;;4891108;29;20601;-87
2023/05/19 09:07:14;;;;;;;18.67;11.40;;;17.20;58.00;;;;;;4878595;29;20048;-88
2023/05/19 09:09:42;;;;;;;19.75;10.98;;;17.20;58.10;;;;;;4884156;29;20394;-85
2023/05/19 09:12:12;;;;;;;20.42;11.70;;;17.60;57.40;;;;;;4870158;29;20045;-86
2023/05/19 09:14:38;;;;;;;17.33;11.13;;;17.30;57.00;;;;;;4874061;29;20020;-85
2023/05/19 09:17:05;;;;;;;18.20;10.25;;;17.50;57.50;;;;;;4873581;29;20048;-88
2023/05/19 09:19:30;;;;;;;19.48;12.18;;;17.50;57.50;;;;;;4872265;29;20480;-85
2023/05/19 09:22:02;;;;;;;16.00;11.02;;;17.40;56.20;;;;;;4886437;29;20037;-87
2023/05/19 09:24:28;;;;;;;22.42;11.98;;;17.50;56.90;;;;;;4891293;29;20043;-86
2023/05/19 09:26:57;;;;;;;34.30;13.63;;;17.70;55.50;;;;;;4874133;29;20486;-87
2023/05/19 09:29:24;;;;;;;19.60;12.27;;;17.70;55.90;;;;;;4877396;29;20032;-88
2023/05/19 09:31:51;;;;;;;17.48;11.75;;;17.60;56.40;;;;;;4877243;29;20039;-87
2023/05/19 09:34:17;;;;;;;19.50;11.50;;;17.40;56.00;;;;;;4874179;29;20104;-87
2023/05/19 09:36:45;;;;;;;17.55;11.65;;;17.80;56.40;;;;;;4881952;29;20122;-87
2023/05/19 09:39:15;;;;;;;16.98;11.40;;;17.90;55.00;;;;;;4877937;29;20037;-87
2023/05/19 09:41:42;;;;;;;20.17;12.13;;;17.80;55.90;;;;;;4881389;29;20033;-88
2023/05/19 09:44:30;;;;;;;15.77;11.23;;;17.90;54.10;;;;;;4893727;29;20035;-85
2023/05/19 09:46:57;;;;;;;18.60;12.27;;;17.90;54.10;;;;;;4879065;29;20598;-86
2023/05/19 09:49:31;;;;;;;16.80;12.05;;;18.10;54.70;;;;;;4878836;29;20039;-88
2023/05/19 09:51:58;;;;;;;18.33;12.75;;;18.30;55.40;;;;;;4871626;29;20490;-89
2023/05/19 09:54:28;;;;;;;16.45;11.15;;;18.60;54.30;;;;;;4883943;29;20040;-87
2023/05/19 09:56:58;;;;;;;15.23;9.65;;;18.40;52.80;;;;;;4886846;29;20036;-89
2023/05/19 09:59:25;;;;;;;17.45;10.05;;;18.60;52.40;;;;;;4902985;29;20103;-91
2023/05/19 10:01:57;;;;;;;17.45;10.65;;;18.70;52.00;;;;;;4915300;29;20028;-89
2023/05/19 10:04:27;;;;;;;16.38;10.00;;;18.80;52.90;;;;;;4879465;29;21271;-88
2023/05/19 10:06:54;;;;;;;13.45;8.70;;;18.80;50.90;;;;;;4888141;29;20509;-88
2023/05/19 10:09:25;;;;;;;14.38;8.32;;;18.60;51.80;;;;;;4894028;29;20031;-88
2023/05/19 10:11:54;;;;;;;16.70;9.85;;;18.40;51.50;;;;;;4878844;29;20048;-88
2023/05/19 10:14:25;;;;;;;20.10;10.68;;;18.50;53.30;;;;;;4875821;29;20024;-90
2023/05/19 10:16:52;;;;;;;16.40;10.30;;;18.70;53.70;;;;;;4879870;29;20059;-88
2023/05/19 10:19:24;;;;;;;25.92;9.27;;;19.10;52.00;;;;;;4884695;29;20052;-89
2023/05/19 10:21:50;;;;;;;20.20;9.48;;;18.90;50.20;;;;;;4883473;29;20040;-87
2023/05/19 10:24:17;;;;;;;17.83;10.63;;;19.10;50.70;;;;;;4898887;29;20036;-88
2023/05/19 10:27:09;;;;;;;14.48;8.35;;;19.40;51.00;;;;;;4893556;29;20045;-87
2023/05/19 10:29:40;;;;;;;13.77;7.22;;;19.20;50.70;;;;;;4879492;29;20040;-89
2023/05/19 10:32:13;;;;;;;16.65;10.05;;;19.30;47.80;;;;;;4877270;29;20045;-89
2023/05/19 10:34:59;;;;;;;13.70;8.10;;;19.20;51.60;;;;;;4888119;29;20056;-90
2023/05/19 10:37:40;;;;;;;16.38;9.10;;;19.30;49.70;;;;;;4882539;29;20049;-90
2023/05/19 10:40:19;;;;;;;17.42;8.75;;;19.40;49.40;;;;;;4892776;29;20216;-90
2023/05/19 10:43:12;;;;;;;14.90;7.45;;;19.70;51.40;;;;;;4881732;29;20442;-89
2023/05/19 10:45:50;;;;;;;14.32;8.65;;;19.80;48.60;;;;;;4897702;29;20127;-86
2023/05/19 10:48:21;;;;;;;12.18;7.03;;;19.40;49.30;;;;;;4881725;29;20075;-89
2023/05/19 10:50:51;;;;;;;14.85;7.20;;;19.40;47.30;;;;;;4880924;29;20119;-88
2023/05/19 10:53:19;;;;;;;13.95;7.68;;;19.60;46.90;;;;;;4878305;29;20035;-88
2023/05/19 10:55:47;;;;;;;14.50;8.65;;;19.70;46.20;;;;;;4893261;29;20033;-88
2023/05/19 10:58:12;;;;;;;14.32;7.13;;;19.10;48.30;;;;;;4897874;29;20029;-88
2023/05/19 11:00:40;;;;;;;13.60;7.00;;;19.40;48.60;;;;;;4890569;29;20034;-90
2023/05/19 11:03:17;;;;;;;11.60;5.82;;;19.70;46.00;;;;;;4881360;29;20040;-87
2023/05/19 11:05:48;;;;;;;11.63;5.70;;;19.80;44.60;;;;;;4887178;29;20500;-87
2023/05/19 11:08:17;;;;;;;13.57;7.05;;;20.20;43.80;;;;;;4886627;29;20100;-87
2023/05/19 11:10:44;;;;;;;13.07;6.18;;;20.40;45.60;;;;;;4881456;29;20500;-87
2023/05/19 11:13:19;;;;;;;16.33;7.90;;;20.50;44.80;;;;;;4898600;29;20283;-90
2023/05/19 11:15:45;;;;;;;18.13;8.82;;;20.30;43.80;;;;;;4877514;29;20044;-86
2023/05/19 11:18:14;;;;;;;14.40;8.23;;;19.90;44.30;;;;;;4886945;29;20124;-89
2023/05/19 11:20:40;;;;;;;12.48;6.68;;;20.20;45.40;;;;;;4883931;29;20032;-88
2023/05/19 11:23:08;;;;;;;15.10;7.80;;;20.20;44.70;;;;;;4881603;29;20040;-88
2023/05/19 11:25:49;;;;;;;15.07;9.80;;;19.60;45.30;;;;;;4880537;29;20028;-88
2023/05/19 11:28:18;;;;;;;14.80;9.48;;;19.80;44.10;;;;;;4882989;29;20031;-88
2023/05/19 11:30:49;;;;;;;11.35;7.43;;;20.00;43.90;;;;;;4884045;29;20032;-88
2023/05/19 11:33:18;;;;;;;13.77;6.80;;;19.90;42.20;;;;;;4890209;29;20032;-88
2023/05/19 11:35:49;;;;;;;14.13;7.53;;;19.80;43.90;;;;;;4891493;29;20041;-89
2023/05/19 11:38:17;;;;;;;12.40;6.85;;;20.00;44.20;;;;;;4896111;29;20040;-87
2023/05/19 11:40:47;;;;;;;17.27;11.65;;;20.50;44.20;;;;;;4885314;29;20087;-88
2023/05/19 11:43:13;;;;;;;17.05;13.77;;;20.60;43.30;;;;;;4889348;29;20035;-88
2023/05/19 11:45:41;;;;;;;17.23;15.05;;;20.20;45.10;;;;;;4893630;29;20021;-89
2023/05/19 11:48:11;;;;;;;21.70;16.52;;;19.80;43.00;;;;;;4895779;29;20037;-90
2023/05/19 11:50:40;;;;;;;16.20;12.73;;;19.70;44.80;;;;;;4899646;29;20048;-90
2023/05/19 11:53:06;;;;;;;16.48;12.57;;;20.50;45.50;;;;;;4884250;29;20048;-87
2023/05/19 11:55:40;;;;;;;16.50;11.23;;;20.70;44.00;;;;;;4879426;29;20398;-88
2023/05/19 11:58:06;;;;;;;15.05;9.68;;;19.90;44.10;;;;;;4894258;29;20052;-88
2023/05/19 12:00:38;;;;;;;18.58;12.18;;;20.00;44.60;;;;;;4887578;29;20024;-90
2023/05/19 12:03:07;;;;;;;16.80;11.63;;;19.90;44.60;;;;;;4880491;29;21013;-87
2023/05/19 12:05:53;;;;;;;14.93;10.98;;;20.00;45.60;;;;;;4896692;29;20545;-88
2023/05/19 12:08:20;;;;;;;14.52;11.05;;;20.00;44.10;;;;;;4909925;29;20040;-87
2023/05/19 12:10:51;;;;;;;19.05;11.82;;;19.80;45.10;;;;;;4876271;29;20037;-86
2023/05/19 12:13:16;;;;;;;15.20;10.05;;;20.30;43.00;;;;;;4891169;29;20100;-90
2023/05/19 12:15:42;;;;;;;14.10;9.85;;;20.40;44.30;;;;;;4888433;29;20057;-86
2023/05/19 12:18:08;;;;;;;18.13;9.07;;;20.10;45.00;;;;;;4882750;29;20073;-86
2023/05/19 12:20:34;;;;;;;14.88;9.23;;;20.50;43.30;;;;;;4885614;29;20222;-86
2023/05/19 12:23:00;;;;;;;13.18;8.93;;;20.10;42.10;;;;;;4884245;29;20493;-87
2023/05/19 12:25:28;;;;;;;16.85;10.10;;;20.40;42.40;;;;;;4889506;29;20100;-87
2023/05/19 12:28:01;;;;;;;14.27;10.18;;;20.30;41.70;;;;;;4902073;29;20092;-85
2023/05/19 12:30:28;;;;;;;16.50;11.68;;;20.20;43.30;;;;;;4888267;29;20045;-88
2023/05/19 12:32:58;;;;;;;20.48;12.60;;;20.40;42.70;;;;;;4905386;29;20060;-85
2023/05/19 12:35:28;;;;;;;16.15;11.00;;;20.30;44.10;;;;;;4904214;29;20128;-87
2023/05/19 12:37:54;;;;;;;18.38;10.82;;;20.60;43.40;;;;;;4884647;29;20044;-87
2023/05/19 12:40:28;;;;;;;15.20;10.63;;;20.40;42.00;;;;;;4889751;29;20100;-87